Aérodrome :
LOGIN :

S'inscrire | Disclaimer

   EN    FR    IT 

 










Légende :    VFR   VFR Marginal   IFR   IFR Intensif   IFR Très Intensif
Visi : 
Plafond : 
>= 8 km
>= 3000ft
5 à 8 km
1000 à 3000 ft
1500m à 5 km
500 à 1000 ft
800 à 1500m
200 à 500 ft
< 800m
< 200 ft
Symboles :   Orages  Brouillard  Fortes neiges  Fortes précipitations  Vent > 20 kt
SIGMETs :   Divers  Orages  Givrage  Turbulence  Onde Orograph.  Cendres Volcan.






- Altitude de l'aérodrome : 257 ft
- Code IATA : MAN


EGCC - Manchester

DERNIER METAR :
  • 300950Z AUTO 29007KT 240V310 9999 BKN023 07/03 Q1024 NOSIG

METARs EXPIRÉS :
  • 300920Z AUTO 30007KT 270V330 9999 SCT023 BKN033 06/03 Q1024
  • 300850Z AUTO 28007KT 9999 SCT024 BKN029 06/03 Q1023 NOSIG
  • 300820Z AUTO 27008KT 9999 NCD 06/02 Q1023
  • 300750Z AUTO 30010KT 9999 FEW027 SCT038 06/02 Q1022 NOSIG
  • 300720Z AUTO 29013KT 9999 BKN037 06/02 Q1022 NOSIG

TAF TAF EGCC
Valide du 30 à 06h jusqu'au 31 à 12h UTC


300500Z 3006/3112 28012KT 9999 SCT020
BECMG 3016/3019 20006KT
PROB30
TEMPO 3022/3103 6000 RA BKN012
BECMG 3102/3105 27012KT
TEMPO 3103/3106 6000 RA BKN012
PROB30
TEMPO 3103/3112 28015G25KT
PROB30
TEMPO 3103/3106 BKN006
PROB30
TEMPO 3106/3112 8000 -SHRA BKN014
ATIS : +44 161 499 2324



MET'MAP, la Météo Aéronautique d'un coup d'oeil ! - Copyright ORBIFLY Décembre 2007 - Disclaimer

ORBIFLY MET'MAP TEAM :

Programmation & Développement : Alexandra Zaïnal
Sur une idée originale de : Baudouin d'Aumeries
Soutien technique & logistique : Manuel Goepfert
Assistance : Marc-Olivier Méhu




SOURCES & CREDITS :

   NOAA